createdAt,value
2016-06-14T00:00:16.084Z,60.34
2016-06-14T00:01:16.073Z,60.34
2016-06-14T00:02:16.091Z,60.34
2016-06-14T00:03:16.093Z,60.34
2016-06-14T00:04:16.097Z,60.44
2016-06-14T00:05:16.099Z,60.34
2016-06-14T00:06:16.119Z,60.44
2016-06-14T00:07:16.122Z,60.34
2016-06-14T00:08:16.125Z,60.44
2016-06-14T00:09:16.128Z,60.34
2016-06-14T00:10:16.131Z,60.44
2016-06-14T00:11:16.149Z,60.34
2016-06-14T00:12:16.169Z,60.34
2016-06-14T00:13:16.155Z,60.34
2016-06-14T00:14:16.174Z,60.53
2016-06-14T00:15:16.178Z,60.53
2016-06-14T00:16:16.180Z,60.14
2016-06-14T00:17:16.184Z,60.34
2016-06-14T00:18:16.187Z,60.34
2016-06-14T00:19:16.206Z,60.53
2016-06-14T00:20:16.209Z,60.34
2016-06-14T00:21:16.212Z,60.53
2016-06-14T00:22:16.215Z,60.34
2016-06-14T00:23:16.233Z,60.34
2016-06-14T00:24:16.236Z,60.44
2016-06-14T00:25:16.255Z,60.34
2016-06-14T00:26:16.258Z,60.44
2016-06-14T00:27:16.261Z,60.34
2016-06-14T00:28:16.264Z,60.34
2016-06-14T00:29:16.705Z,60.44
2016-06-14T00:30:16.301Z,60.53
2016-06-14T00:31:16.289Z,60.44
2016-06-14T00:32:16.293Z,60.34
2016-06-14T00:33:16.311Z,60.34
2016-06-14T00:34:16.313Z,60.53
2016-06-14T00:35:16.317Z,60.53
2016-06-14T00:36:16.336Z,60.53
2016-06-14T00:37:16.323Z,60.34
2016-06-14T00:38:16.342Z,60.34
2016-06-14T00:39:16.345Z,60.34
2016-06-14T00:40:16.349Z,60.34
2016-06-14T00:41:16.366Z,60.44
2016-06-14T00:42:16.354Z,60.53
2016-06-14T00:43:16.373Z,60.53
2016-06-14T00:44:16.658Z,60.34
2016-06-14T00:45:16.378Z,60.53
2016-06-14T00:46:16.398Z,60.34
2016-06-14T00:47:16.400Z,60.53
2016-06-14T00:48:16.404Z,60.53
2016-06-14T00:49:16.407Z,60.24
2016-06-14T00:50:16.426Z,60.44
2016-06-14T00:51:16.272Z,60.34
2016-06-14T00:52:16.432Z,60.53
2016-06-14T00:53:16.450Z,60.34
2016-06-14T00:54:16.454Z,60.34
2016-06-14T00:55:16.503Z,60.34
2016-06-14T00:56:16.476Z,60.34
2016-06-14T00:57:16.479Z,60.63
2016-06-14T00:58:16.481Z,60.24
2016-06-14T00:59:16.501Z,60.53
2016-06-14T01:00:16.488Z,60.53
2016-06-14T01:01:16.491Z,60.53
2016-06-14T01:02:16.510Z,60.24
2016-06-14T01:03:16.513Z,60.44
2016-06-14T01:04:16.516Z,60.44
2016-06-14T01:05:16.520Z,60.44
2016-06-14T01:06:16.537Z,60.53
2016-06-14T01:07:16.541Z,60.53
2016-06-14T01:08:16.559Z,60.53
2016-06-14T01:09:16.562Z,60.53
2016-06-14T01:10:16.566Z,60.53
2016-06-14T01:11:16.569Z,60.53
2016-06-14T01:12:16.571Z,60.53
2016-06-14T01:13:16.590Z,60.24
2016-06-14T01:14:16.609Z,60.53
2016-06-14T01:15:16.596Z,60.44
2016-06-14T01:16:16.598Z,60.44
2016-06-14T01:17:16.618Z,60.44
2016-06-14T01:18:16.622Z,60.53
2016-06-14T01:19:16.624Z,60.53
2016-06-14T01:20:16.643Z,60.44
2016-06-14T01:21:16.630Z,60.34
2016-06-14T01:22:16.650Z,60.53
2016-06-14T01:23:16.652Z,60.34
2016-06-14T01:24:16.655Z,60.53
2016-06-14T01:25:16.674Z,60.53
2016-06-14T01:26:16.521Z,60.44
2016-06-14T01:27:16.680Z,60.53
2016-06-14T01:28:16.683Z,60.53
2016-06-14T01:29:16.702Z,60.53
2016-06-14T01:30:16.908Z,60.44
2016-06-14T01:31:16.708Z,60.53
2016-06-14T01:32:16.727Z,60.34
2016-06-14T01:33:16.730Z,60.14
2016-06-14T01:34:16.733Z,60.34
2016-06-14T01:35:16.751Z,60.34
2016-06-14T01:36:16.755Z,60.44
2016-06-14T01:37:16.757Z,60.53
2016-06-14T01:38:16.760Z,60.24
2016-06-14T01:39:16.764Z,60.44
2016-06-14T01:40:16.767Z,60.34
2016-06-14T01:41:16.785Z,60.53
2016-06-14T01:42:16.789Z,60.34
2016-06-14T01:43:16.792Z,60.24
2016-06-14T01:44:16.795Z,60.14
2016-06-14T01:45:17.142Z,60.53
2016-06-14T01:46:16.816Z,60.24
2016-06-14T01:47:16.836Z,60.34
2016-06-14T01:48:16.838Z,60.44
2016-06-14T01:49:16.841Z,60.34
2016-06-14T01:50:16.844Z,60.63
2016-06-14T01:51:16.848Z,60.53
2016-06-14T01:52:16.866Z,60.53
2016-06-14T01:53:16.870Z,60.14
2016-06-14T01:54:16.872Z,60.53
2016-06-14T01:55:16.876Z,60.53
2016-06-14T01:56:16.879Z,60.63
2016-06-14T01:57:16.897Z,60.44
2016-06-14T01:58:16.916Z,60.44
2016-06-14T01:59:16.919Z,60.53
2016-06-14T02:00:17.203Z,60.53
2016-06-14T02:01:16.925Z,60.34
2016-06-14T02:02:16.928Z,60.53
2016-06-14T02:03:16.931Z,60.34
2016-06-14T02:04:16.966Z,60.53
2016-06-14T02:05:16.953Z,60.53
2016-06-14T02:06:16.957Z,60.34
2016-06-14T02:07:16.975Z,60.34
2016-06-14T02:08:16.963Z,60.44
2016-06-14T02:09:16.981Z,60.53
2016-06-14T02:10:16.984Z,60.34
2016-06-14T02:11:17.003Z,60.63
2016-06-14T02:12:17.006Z,60.53
2016-06-14T02:13:17.009Z,60.53
2016-06-14T02:14:17.028Z,60.34
2016-06-14T02:15:17.296Z,60.44
2016-06-14T02:16:17.033Z,60.53
2016-06-14T02:17:17.036Z,60.53
2016-06-14T02:18:17.040Z,60.53
2016-06-14T02:19:17.058Z,60.34
2016-06-14T02:20:17.045Z,60.44
2016-06-14T02:21:17.065Z,60.53
2016-06-14T02:22:17.067Z,60.24
2016-06-14T02:23:17.087Z,60.53
2016-06-14T02:24:17.090Z,60.44
2016-06-14T02:25:17.108Z,60.53
2016-06-14T02:26:17.096Z,60.24
2016-06-14T02:27:17.099Z,60.44
2016-06-14T02:28:17.117Z,60.24
2016-06-14T02:29:17.120Z,60.53
2016-06-14T02:30:17.123Z,60.24
2016-06-14T02:31:17.142Z,60.63
2016-06-14T02:32:17.145Z,60.53
2016-06-14T02:33:17.148Z,60.53
2016-06-14T02:34:17.152Z,60.53
2016-06-14T02:35:17.171Z,60.34
2016-06-14T02:36:17.173Z,60.44
2016-06-14T02:37:17.192Z,60.34
2016-06-14T02:38:17.195Z,60.44
2016-06-14T02:39:17.183Z,60.53
2016-06-14T02:40:17.201Z,60.24
2016-06-14T02:41:17.204Z,60.53
2016-06-14T02:42:17.208Z,60.34
2016-06-14T02:43:17.226Z,60.53
2016-06-14T02:44:17.230Z,60.24
2016-06-14T02:45:17.233Z,60.53
2016-06-14T02:46:17.250Z,60.24
2016-06-14T02:47:17.239Z,60.63
2016-06-14T02:48:17.257Z,60.72
2016-06-14T02:49:17.260Z,60.34
2016-06-14T02:50:17.263Z,60.63
2016-06-14T02:51:17.298Z,60.53
2016-06-14T02:52:17.285Z,60.53
2016-06-14T02:53:17.288Z,60.53
2016-06-14T02:54:17.135Z,60.63
2016-06-14T02:55:17.372Z,60.53
2016-06-14T02:56:17.220Z,60.63
2016-06-14T02:57:17.159Z,60.24
2016-06-14T02:58:17.319Z,60.53
2016-06-14T02:59:17.338Z,60.53
2016-06-14T03:00:17.340Z,60.53
2016-06-14T03:01:17.360Z,60.53
2016-06-14T03:02:17.347Z,60.34
2016-06-14T03:03:17.366Z,60.44
2016-06-14T03:04:17.369Z,60.53
2016-06-14T03:05:17.388Z,60.34
2016-06-14T03:06:17.391Z,60.53
2016-06-14T03:07:17.395Z,60.24
2016-06-14T03:08:17.397Z,60.24
2016-06-14T03:09:17.400Z,60.53
2016-06-14T03:10:17.418Z,60.24
2016-06-14T03:11:17.421Z,60.53
2016-06-14T03:12:17.425Z,60.53
2016-06-14T03:13:17.444Z,60.53
2016-06-14T03:14:17.446Z,60.53
2016-06-14T03:15:17.527Z,60.24
2016-06-14T03:16:17.453Z,60.63
2016-06-14T03:17:17.300Z,60.24
2016-06-14T03:18:17.459Z,60.34
2016-06-14T03:19:17.477Z,60.34
2016-06-14T03:20:17.480Z,60.24
2016-06-14T03:21:17.483Z,60.24
2016-06-14T03:22:17.502Z,60.24
2016-06-14T03:23:17.505Z,60.14
2016-06-14T03:24:17.353Z,60.63
2016-06-14T03:25:17.511Z,60.24
2016-06-14T03:26:17.530Z,60.24
2016-06-14T03:27:17.534Z,60.34
2016-06-14T03:28:17.537Z,60.53
2016-06-14T03:29:17.539Z,60.34
2016-06-14T03:30:17.543Z,60.34
2016-06-14T03:31:17.560Z,60.34
2016-06-14T03:32:17.564Z,60.24
2016-06-14T03:33:17.567Z,60.24
2016-06-14T03:34:17.586Z,60.24
2016-06-14T03:35:17.605Z,60.53
2016-06-14T03:36:17.592Z,60.14
2016-06-14T03:37:17.595Z,60.24
2016-06-14T03:38:17.458Z,60.34
2016-06-14T03:39:17.618Z,60.24
2016-06-14T03:40:17.636Z,60.24
2016-06-14T03:41:17.623Z,60.24
2016-06-14T03:42:17.626Z,60.24
2016-06-14T03:43:17.645Z,60.24
2016-06-14T03:44:17.648Z,60.44
2016-06-14T03:45:17.495Z,60.34
2016-06-14T03:46:17.670Z,60.53
2016-06-14T03:47:17.673Z,60.24
2016-06-14T03:48:17.676Z,60.34
2016-06-14T03:49:17.679Z,60.24
2016-06-14T03:50:17.697Z,60.34
2016-06-14T03:51:17.700Z,60.24
2016-06-14T03:52:17.703Z,60.44
2016-06-14T03:53:17.706Z,60.24
2016-06-14T03:54:17.726Z,60.53
2016-06-14T03:55:17.729Z,60.34
2016-06-14T03:56:17.731Z,60.53
2016-06-14T03:57:17.751Z,60.53
2016-06-14T03:58:17.754Z,60.63
2016-06-14T03:59:17.757Z,60.53
2016-06-14T04:00:17.650Z,60.34
2016-06-14T04:01:17.763Z,60.44
2016-06-14T04:02:17.766Z,60.63
2016-06-14T04:03:17.784Z,60.63
2016-06-14T04:04:17.804Z,60.34
2016-06-14T04:05:17.790Z,60.24
2016-06-14T04:06:17.793Z,60.24
2016-06-14T04:07:17.812Z,60.24
2016-06-14T04:08:17.816Z,60.34
2016-06-14T04:09:17.819Z,60.34
2016-06-14T04:10:17.837Z,60.63
2016-06-14T04:11:17.841Z,60.24
2016-06-14T04:12:17.844Z,60.53
2016-06-14T04:13:17.847Z,60.24
2016-06-14T04:14:17.865Z,60.63
2016-06-14T04:15:18.259Z,60.34
2016-06-14T04:16:17.871Z,60.44
2016-06-14T04:17:17.874Z,60.24
2016-06-14T04:18:17.893Z,60.63
2016-06-14T04:19:17.897Z,60.53
2016-06-14T04:20:17.900Z,60.24
2016-06-14T04:21:17.902Z,60.44
2016-06-14T04:22:17.921Z,60.34
2016-06-14T04:23:17.923Z,60.53
2016-06-14T04:24:17.927Z,60.63
2016-06-14T04:25:17.930Z,60.44
2016-06-14T04:26:17.933Z,60.63
2016-06-14T04:27:17.952Z,60.63
2016-06-14T04:28:17.956Z,60.53
2016-06-14T04:29:17.974Z,60.24
2016-06-14T04:30:17.977Z,60.53
2016-06-14T04:31:17.981Z,60.24
2016-06-14T04:32:17.984Z,60.53
2016-06-14T04:33:18.001Z,60.34
2016-06-14T04:34:17.990Z,60.53
2016-06-14T04:35:18.008Z,60.24
2016-06-14T04:36:18.010Z,60.63
2016-06-14T04:37:18.029Z,60.24
2016-06-14T04:38:18.033Z,60.53
2016-06-14T04:39:18.036Z,60.34
2016-06-14T04:40:18.039Z,60.34
2016-06-14T04:41:18.042Z,60.53
2016-06-14T04:42:18.045Z,60.24
2016-06-14T04:43:18.079Z,60.44
2016-06-14T04:44:18.067Z,60.53
2016-06-14T04:45:18.085Z,60.53
2016-06-14T04:46:18.088Z,60.53
2016-06-14T04:47:18.077Z,60.14
2016-06-14T04:48:18.095Z,60.53
2016-06-14T04:49:18.113Z,60.24
2016-06-14T04:50:18.117Z,60.34
2016-06-14T04:51:18.120Z,60.44
2016-06-14T04:52:18.123Z,60.44
2016-06-14T04:53:18.126Z,60.34
2016-06-14T04:54:18.144Z,60.53
2016-06-14T04:55:18.147Z,60.44
2016-06-14T04:56:18.150Z,60.53
2016-06-14T04:57:18.154Z,60.34
2016-06-14T04:58:18.172Z,60.34
2016-06-14T04:59:18.175Z,60.14
2016-06-14T05:00:18.022Z,60.34
2016-06-14T05:01:18.182Z,60.44
2016-06-14T05:02:18.201Z,60.34
2016-06-14T05:03:18.204Z,60.14
2016-06-14T05:04:18.222Z,60.34
2016-06-14T05:05:18.225Z,60.44
2016-06-14T05:06:18.228Z,60.44
2016-06-14T05:07:18.231Z,60.34
2016-06-14T05:08:18.250Z,60.53
2016-06-14T05:09:18.253Z,60.44
2016-06-14T05:10:18.256Z,60.44
2016-06-14T05:11:18.276Z,60.34
2016-06-14T05:12:18.263Z,60.34
2016-06-14T05:13:18.282Z,60.53
2016-06-14T05:14:18.285Z,60.44
2016-06-14T05:15:18.350Z,60.24
2016-06-14T05:16:18.322Z,60.34
2016-06-14T05:17:18.309Z,60.34
2016-06-14T05:18:18.312Z,60.44
2016-06-14T05:19:18.425Z,60.14
2016-06-14T05:20:18.318Z,60.53
2016-06-14T05:21:18.337Z,60.14
2016-06-14T05:22:18.340Z,60.63
2016-06-14T05:23:18.343Z,60.53
2016-06-14T05:24:18.347Z,60.34
2016-06-14T05:25:18.365Z,60.63
2016-06-14T05:26:18.853Z,60.14
2016-06-14T05:27:18.370Z,60.24
2016-06-14T05:28:18.562Z,60.53
2016-06-14T05:29:18.393Z,60.53
2016-06-14T05:30:18.537Z,60.14
2016-06-14T05:31:18.242Z,60.24
2016-06-14T05:32:18.402Z,60.14
2016-06-14T05:33:18.421Z,59.95
2016-06-14T05:34:18.424Z,60.34
2016-06-14T05:35:18.427Z,60.24
2016-06-14T05:36:18.478Z,60.34
2016-06-14T05:37:18.620Z,60.34
2016-06-14T05:38:18.624Z,60.44
2016-06-14T05:39:18.579Z,60.44
2016-06-14T05:40:18.473Z,60.44
2016-06-14T05:41:18.477Z,60.44
2016-06-14T05:42:18.480Z,60.47
2016-06-14T05:43:18.483Z,60.44
2016-06-14T05:44:18.798Z,60.34
2016-06-14T05:45:18.817Z,60.34
2016-06-14T05:46:19.429Z,60.44
2016-06-14T05:47:18.761Z,60.53
2016-06-14T05:48:18.623Z,60.53
2016-06-14T05:49:18.814Z,60.47
2016-06-14T05:50:18.535Z,60.08
2016-06-14T05:51:18.914Z,60.05
2016-06-14T05:52:18.808Z,60.14
2016-06-14T05:53:18.826Z,60.27
2016-06-14T05:54:18.719Z,60.27
2016-06-14T05:55:18.911Z,59.95
2016-06-14T05:56:18.585Z,59.98
2016-06-14T05:57:18.588Z,60.08
2016-06-14T05:58:18.591Z,60.08
2016-06-14T05:59:18.610Z,60.08
2016-06-14T06:00:19.597Z,60.17
2016-06-14T06:01:19.225Z,60.17
2016-06-14T06:02:18.869Z,60.08
2016-06-14T06:03:18.889Z,60.27
2016-06-14T06:04:18.642Z,60.17
2016-06-14T06:05:18.644Z,60.08
2016-06-14T06:06:18.648Z,60.08
2016-06-14T06:07:18.651Z,60.08
2016-06-14T06:08:18.669Z,60.27
2016-06-14T06:09:18.672Z,59.98
2016-06-14T06:10:18.675Z,60.08
2016-06-14T06:11:18.694Z,59.98
2016-06-14T06:12:18.697Z,60.08
2016-06-14T06:13:18.466Z,60.08
2016-06-14T06:14:18.703Z,59.98
2016-06-14T06:15:19.581Z,60.08
2016-06-14T06:16:19.179Z,60.08
2016-06-14T06:17:22.353Z,59.98
2016-06-14T06:18:19.247Z,59.89
2016-06-14T06:19:19.796Z,59.98
2016-06-14T06:20:19.080Z,60.17
2016-06-14T06:21:19.678Z,59.98
2016-06-14T06:22:19.400Z,59.79
2016-06-14T06:23:19.137Z,59.79
2016-06-14T06:24:19.390Z,59.98
2016-06-14T06:25:18.940Z,59.69
2016-06-14T06:26:18.912Z,60.27
2016-06-14T06:27:20.165Z,59.69
2016-06-14T06:28:19.153Z,59.89
2016-06-14T06:29:19.140Z,59.79
2016-06-14T06:30:18.847Z,59.79
2016-06-14T06:31:20.490Z,59.98
2016-06-14T06:32:19.118Z,59.69
2016-06-14T06:33:19.090Z,59.59
2016-06-14T06:34:18.512Z,59.69
2016-06-14T06:35:19.018Z,59.79
2016-06-14T06:36:19.802Z,59.59
2016-06-14T06:37:19.180Z,59.69
2016-06-14T06:38:18.886Z,59.59
2016-06-14T06:39:19.092Z,59.69
2016-06-14T06:40:19.377Z,59.5
2016-06-14T06:41:19.536Z,59.4
2016-06-14T06:42:19.477Z,59.69
2016-06-14T06:43:19.370Z,59.59
2016-06-14T06:44:19.451Z,59.4
2016-06-14T06:45:19.683Z,59.89
2016-06-14T06:46:19.383Z,59.5
2016-06-14T06:47:19.039Z,59.79
2016-06-14T06:48:19.357Z,59.59
2016-06-14T06:49:20.103Z,59.5
2016-06-14T06:50:19.942Z,59.4
2016-06-14T06:51:19.786Z,59.59
2016-06-14T06:52:19.536Z,59.4
2016-06-14T06:53:20.196Z,59.4
2016-06-14T06:54:19.508Z,59.59
2016-06-14T06:55:19.604Z,59.79
2016-06-14T06:56:19.952Z,59.79
2016-06-14T06:57:20.287Z,59.69
2016-06-14T06:58:20.061Z,59.4
2016-06-14T06:59:20.288Z,59.4
2016-06-14T07:00:19.773Z,59.59
2016-06-14T07:01:20.127Z,59.79
2016-06-14T07:02:22.789Z,59.59
2016-06-14T07:03:20.043Z,59.59
2016-06-14T07:04:20.127Z,59.69
2016-06-14T07:05:20.489Z,59.5
2016-06-14T07:06:19.708Z,59.59
2016-06-14T07:07:19.790Z,59.31
2016-06-14T07:08:19.731Z,59.59
2016-06-14T07:09:19.720Z,59.59
2016-06-14T07:10:20.538Z,59.69
2016-06-14T07:12:03.464Z,59.4
2016-06-14T07:12:19.574Z,59.69
2016-06-14T07:13:20.892Z,59.5
2016-06-14T07:14:21.302Z,59.79
2016-06-14T07:15:20.899Z,59.4
2016-06-14T07:16:21.511Z,59.4
2016-06-14T07:17:20.733Z,59.4
2016-06-14T07:18:20.861Z,59.4
2016-06-14T07:19:20.850Z,59.4
2016-06-14T07:20:20.914Z,59.4
2016-06-14T07:21:20.617Z,59.69
2016-06-14T07:22:20.121Z,59.5
2016-06-14T07:23:21.987Z,59.59
2016-06-14T07:24:22.302Z,59.59
2016-06-14T07:25:21.164Z,59.5
2016-06-14T07:27:41.639Z,59.5
2016-06-14T07:28:42.783Z,59.4
2016-06-14T07:29:43.411Z,59.4
2016-06-14T07:31:43.698Z,59.5
2016-06-14T07:33:09.936Z,59.79
2016-06-14T07:33:43.736Z,59.59
2016-06-14T07:34:43.254Z,59.4
2016-06-14T07:35:41.633Z,59.59
2016-06-14T07:36:41.402Z,59.59
2016-06-14T07:37:41.419Z,59.59
2016-06-14T07:38:41.422Z,59.4
2016-06-14T07:39:41.426Z,59.4
2016-06-14T07:40:41.742Z,59.59
2016-06-14T07:41:41.463Z,59.5
2016-06-14T07:42:41.295Z,59.59
2016-06-14T07:43:41.454Z,59.59
2016-06-14T07:44:41.472Z,59.69
2016-06-14T07:45:41.476Z,59.59
2016-06-14T07:46:41.838Z,59.59
2016-06-14T07:47:41.497Z,59.69
2016-06-14T07:48:41.501Z,59.59
2016-06-14T07:49:41.504Z,59.69
2016-06-14T07:50:41.647Z,59.59
2016-06-14T07:51:41.526Z,59.4
2016-06-14T07:52:41.529Z,59.69
2016-06-14T07:53:41.532Z,59.59
2016-06-14T07:54:41.550Z,59.69
2016-06-14T07:55:41.553Z,59.69
2016-06-14T07:56:41.603Z,59.5
2016-06-14T07:57:41.560Z,59.5
2016-06-14T07:58:41.578Z,59.4
2016-06-14T07:59:41.581Z,59.79
2016-06-14T08:00:41.585Z,59.69
2016-06-14T08:01:41.587Z,59.79
2016-06-14T08:02:44.107Z,59.79
2016-06-14T08:03:41.610Z,59.89
2016-06-14T08:04:42.097Z,59.89
2016-06-14T08:05:42.506Z,59.79
2016-06-14T08:06:42.649Z,59.89
2016-06-14T08:07:43.075Z,59.89
2016-06-14T08:08:42.546Z,59.53
2016-06-14T08:09:42.549Z,59.43
2016-06-14T08:10:42.162Z,59.91
2016-06-14T08:11:45.588Z,59.82
2016-06-14T08:12:42.512Z,59.72
2016-06-14T08:13:42.702Z,59.82
2016-06-14T08:14:42.049Z,59.82
2016-06-14T08:15:42.709Z,59.63
2016-06-14T08:16:43.555Z,59.72
2016-06-14T08:17:42.652Z,59.63
2016-06-14T08:18:43.093Z,59.82
2016-06-14T08:19:42.518Z,59.82
2016-06-14T08:20:42.021Z,59.43
2016-06-14T08:21:42.618Z,59.63
2016-06-14T08:22:46.730Z,59.82
2016-06-14T08:23:42.374Z,59.53
2016-06-14T08:24:42.612Z,59.53
2016-06-14T08:25:42.427Z,59.63
2016-06-14T08:26:42.867Z,59.63
2016-06-14T08:27:42.433Z,59.63
2016-06-14T08:28:41.952Z,59.72
2016-06-14T08:29:42.205Z,59.63
2016-06-14T08:30:42.176Z,59.63
2016-06-14T08:31:42.117Z,59.53
2016-06-14T08:32:42.808Z,59.33
2016-06-14T08:33:42.794Z,59.63
2016-06-14T08:34:42.705Z,59.63
2016-06-14T08:35:41.645Z,59.33
2016-06-14T08:36:42.554Z,59.63
2016-06-14T08:37:42.557Z,59.63
2016-06-14T08:38:41.810Z,59.53
2016-06-14T08:39:42.141Z,59.63
2016-06-14T08:40:43.113Z,59.63
2016-06-14T08:41:42.773Z,59.63
2016-06-14T08:42:42.886Z,59.53
2016-06-14T08:43:43.794Z,59.63
2016-06-14T08:44:46.017Z,59.63
2016-06-14T08:45:42.331Z,59.63
2016-06-14T08:46:42.788Z,59.53
2016-06-14T08:47:41.948Z,59.63
2016-06-14T08:48:42.326Z,59.53
2016-06-14T08:49:43.032Z,59.43
2016-06-14T08:50:43.067Z,59.43
2016-06-14T08:51:43.022Z,59.43
2016-06-14T08:52:42.916Z,59.72
2016-06-14T08:53:41.919Z,59.23
2016-06-14T08:54:42.751Z,59.63
2016-06-14T08:55:43.206Z,59.82
2016-06-14T08:56:42.679Z,59.23
2016-06-14T08:57:42.369Z,59.23
2016-06-14T08:58:44.184Z,59.82
2016-06-14T08:59:43.297Z,59.82
2016-06-14T09:00:42.519Z,59.82
2016-06-14T09:01:42.772Z,59.23
2016-06-14T09:02:42.728Z,59.23
2016-06-14T09:03:42.059Z,59.43
2016-06-14T09:04:42.672Z,59.43
2016-06-14T09:05:42.362Z,59.72
2016-06-14T09:06:42.537Z,59.43
2016-06-14T09:07:42.760Z,59.43
2016-06-14T09:08:42.747Z,59.43
2016-06-14T09:09:43.108Z,59.53
2016-06-14T09:10:42.721Z,59.53
2016-06-14T09:11:42.099Z,59.53
2016-06-14T09:12:42.790Z,59.53
2016-06-14T09:13:42.450Z,59.53
2016-06-14T09:14:42.281Z,59.43
2016-06-14T09:15:42.502Z,59.53
2016-06-14T09:16:42.693Z,59.59
2016-06-14T09:17:42.602Z,59.14
2016-06-14T09:18:43.105Z,59.63
2016-06-14T09:19:42.499Z,59.63
2016-06-14T09:20:42.503Z,59.43
2016-06-14T09:21:42.224Z,59.53
2016-06-14T09:22:42.462Z,59.14
2016-06-14T09:23:42.231Z,59.63
2016-06-14T09:24:42.812Z,59.82
2016-06-14T09:25:42.221Z,59.43
2016-06-14T09:26:42.224Z,59.72
2016-06-14T09:27:42.227Z,59.72
2016-06-14T09:28:42.246Z,59.72
2016-06-14T09:29:42.249Z,59.72
2016-06-14T09:30:42.252Z,59.63
2016-06-14T09:31:42.645Z,59.31
2016-06-14T09:32:42.273Z,59.53
2016-06-14T09:33:42.277Z,59.63
2016-06-14T09:34:42.279Z,59.23
2016-06-14T09:35:42.298Z,59.53
2016-06-14T09:36:42.380Z,59.4
2016-06-14T09:37:42.305Z,59.43
2016-06-14T09:38:42.308Z,59.63
2016-06-14T09:39:42.342Z,59.43
2016-06-14T09:40:42.328Z,59.63
2016-06-14T09:41:42.582Z,59.53
2016-06-14T09:42:42.632Z,59.63
2016-06-14T09:43:42.698Z,59.43
2016-06-14T09:44:42.608Z,59.43
2016-06-14T09:45:42.579Z,59.23
2016-06-14T09:46:43.536Z,59.79
2016-06-14T09:47:42.460Z,59.53
2016-06-14T09:48:43.041Z,59.82
2016-06-14T09:49:42.717Z,59.63
2016-06-14T09:50:42.594Z,59.53
2016-06-14T09:51:42.676Z,59.72
2016-06-14T09:52:42.709Z,59.72
2016-06-14T09:53:42.979Z,59.63
2016-06-14T09:54:42.841Z,59.43
2016-06-14T09:55:42.782Z,59.63
2016-06-14T09:56:42.925Z,59.43
2016-06-14T09:57:42.616Z,59.53
2016-06-14T09:58:42.681Z,59.72
2016-06-14T09:59:43.012Z,59.33
2016-06-14T10:00:43.265Z,59.53
2016-06-14T10:01:42.519Z,59.63
2016-06-14T10:02:43.288Z,59.63
2016-06-14T10:03:42.665Z,59.63
2016-06-14T10:09:39.872Z,59.63
2016-06-14T10:10:39.937Z,59.33
2016-06-14T10:11:40.112Z,59.63
2016-06-14T10:12:39.724Z,59.63
2016-06-14T10:13:40.087Z,59.53
2016-06-14T10:14:39.746Z,59.56
2016-06-14T10:15:39.749Z,59.36
2016-06-14T10:16:39.627Z,59.66
2016-06-14T10:17:40.584Z,59.46
2016-06-14T10:18:39.775Z,59.66
2016-06-14T10:19:39.964Z,59.66
2016-06-14T10:20:39.968Z,59.75
2016-06-14T10:21:43.205Z,59.75
2016-06-14T10:22:39.802Z,59.91
2016-06-14T10:23:40.149Z,59.82
2016-06-14T10:24:40.339Z,59.75
2016-06-14T10:25:40.155Z,59.46
2016-06-14T10:26:42.064Z,59.82
2016-06-14T10:27:40.584Z,59.84
2016-06-14T10:28:40.289Z,59.84
2016-06-14T10:29:40.948Z,59.66
2016-06-14T10:30:40.576Z,60.04
2016-06-14T10:31:40.407Z,59.94
2016-06-14T10:32:41.302Z,59.84
2016-06-14T10:33:40.602Z,59.84
2016-06-14T10:34:41.385Z,59.91
2016-06-14T10:35:40.327Z,59.91
2016-06-14T10:36:40.720Z,60.04
2016-06-14T10:37:40.520Z,59.84
2016-06-14T10:38:41.804Z,59.56
2016-06-14T10:39:40.527Z,59.46
2016-06-14T10:40:40.529Z,59.66
2016-06-14T10:41:41.407Z,59.82
2016-06-14T10:42:40.629Z,59.82
2016-06-14T10:43:40.789Z,59.72
2016-06-14T10:44:46.855Z,59.82
2016-06-14T10:45:40.982Z,59.56
2016-06-14T10:46:41.111Z,59.46
2016-06-14T10:47:40.550Z,59.43
2016-06-14T10:48:40.366Z,59.43
2016-06-14T10:49:40.479Z,59.63
2016-06-14T10:50:41.123Z,59.63
2016-06-14T10:51:40.938Z,59.43
2016-06-14T10:52:40.879Z,59.72
2016-06-14T10:53:40.945Z,59.43
2016-06-14T10:54:41.541Z,59.66
2016-06-14T10:55:40.638Z,60.4
2016-06-14T10:56:41.063Z,60.4
2016-06-14T10:57:40.472Z,59.72
2016-06-14T10:58:41.709Z,59.82
2016-06-14T10:59:41.071Z,59.72
2016-06-14T11:00:40.513Z,60.01
2016-06-14T11:01:40.110Z,60.11
2016-06-14T11:02:40.550Z,60.01
2016-06-14T11:03:40.569Z,60.01
2016-06-14T11:04:40.337Z,59.91
2016-06-14T11:05:40.653Z,60.01
2016-06-14T11:06:40.125Z,60.11
2016-06-14T11:07:40.440Z,60.3
2016-06-14T11:08:40.881Z,60.21
2016-06-14T11:09:40.243Z,60.21
2016-06-14T11:10:40.184Z,60.3
2016-06-14T11:11:40.155Z,60.21
2016-06-14T11:12:40.158Z,60.21
2016-06-14T11:13:40.161Z,60.21
2016-06-14T11:14:40.181Z,60.11
2016-06-14T11:15:40.184Z,60.21
2016-06-14T11:16:40.295Z,60.21
2016-06-14T11:17:40.471Z,60.4
2016-06-14T11:18:40.724Z,60.4
2016-06-14T11:19:40.962Z,60.01
2016-06-14T11:20:40.512Z,60.3
2016-06-14T11:21:40.264Z,60.01
2016-06-14T11:22:40.268Z,60.21
2016-06-14T11:23:40.240Z,60.01
2016-06-14T11:24:40.242Z,60.11
2016-06-14T11:25:40.246Z,60.3
2016-06-14T11:26:40.280Z,60.01
2016-06-14T11:27:40.267Z,60.11
2016-06-14T11:28:40.521Z,60.01
2016-06-14T11:29:40.133Z,60.21
2016-06-14T11:30:40.292Z,59.82
2016-06-14T11:31:40.327Z,60.11
2016-06-14T11:32:40.673Z,60.3
2016-06-14T11:33:40.317Z,60.11
2016-06-14T11:34:40.320Z,60.11
2016-06-14T11:35:40.464Z,60.11
2016-06-14T11:36:40.343Z,60.11
2016-06-14T11:37:40.330Z,60.11
2016-06-14T11:38:40.349Z,60.01
2016-06-14T11:39:40.352Z,60.01
2016-06-14T11:40:40.369Z,60.01
2016-06-14T11:41:40.373Z,60.11
2016-06-14T11:42:40.423Z,60.01
2016-06-14T11:43:40.473Z,60.11
2016-06-14T11:44:40.398Z,59.91
2016-06-14T11:45:41.526Z,60.3
2016-06-14T11:46:41.748Z,60.11
2016-06-14T11:47:41.360Z,60.11
2016-06-14T11:48:41.160Z,59.91
2016-06-14T11:49:41.680Z,60.01
2016-06-14T11:50:41.245Z,60.11
2016-06-14T11:51:41.639Z,60.11
2016-06-14T11:52:41.532Z,60.4
2016-06-14T11:53:41.300Z,60.01
2016-06-14T11:54:41.366Z,60.5
2016-06-14T11:55:41.244Z,60.01
2016-06-14T11:56:40.481Z,60.4
2016-06-14T11:57:40.610Z,60.4
2016-06-14T11:58:40.488Z,60.4
2016-06-14T11:59:40.850Z,60.5
2016-06-14T12:00:40.509Z,60.3
2016-06-14T12:01:40.575Z,60.59
2016-06-14T12:02:40.516Z,60.59
2016-06-14T12:03:40.863Z,60.5
2016-06-14T12:04:40.538Z,60.4
2016-06-14T12:05:40.540Z,60.5
2016-06-14T12:06:40.543Z,60.4
2016-06-14T12:07:40.563Z,60.5
2016-06-14T12:08:40.566Z,60.4
2016-06-14T12:09:40.584Z,60.5
2016-06-14T12:10:40.431Z,60.4
2016-06-14T12:11:40.590Z,60.4
2016-06-14T12:12:40.593Z,60.4
2016-06-14T12:13:40.612Z,60.5
2016-06-14T12:14:40.600Z,60.01
2016-06-14T12:15:40.618Z,60.5
2016-06-14T12:16:40.731Z,60.5
2016-06-14T12:17:41.108Z,60.5
2016-06-14T12:18:40.628Z,60.5
2016-06-14T12:19:40.630Z,60.4
2016-06-14T12:20:40.650Z,60.5
2016-06-14T12:21:40.653Z,60.4
2016-06-14T12:22:40.671Z,60.4
2016-06-14T12:23:40.673Z,60.01
2016-06-14T12:24:40.693Z,60.5
2016-06-14T12:25:40.697Z,60.4
2016-06-14T12:26:40.699Z,60.5
2016-06-14T12:27:40.686Z,60.3
2016-06-14T12:28:40.970Z,60.01
2016-06-14T12:29:40.723Z,60.21
2016-06-14T12:30:40.570Z,60.01
2016-06-14T12:31:41.167Z,59.91
2016-06-14T12:32:41.952Z,59.91
2016-06-14T12:33:40.736Z,60.21
2016-06-14T12:34:40.755Z,60.5
2016-06-14T12:35:40.758Z,60.4
2016-06-14T12:36:40.777Z,60.21
2016-06-14T12:37:40.765Z,60.5
2016-06-14T12:38:40.767Z,60.5
2016-06-14T12:39:40.786Z,60.59
2016-06-14T12:40:40.786Z,60.59
2016-06-14T12:41:40.790Z,60.4
2016-06-14T12:42:40.792Z,59.82
2016-06-14T12:43:40.810Z,60.5
2016-06-14T12:44:41.283Z,60.4
2016-06-14T12:45:40.817Z,60.4
2016-06-14T12:46:40.820Z,60.5
2016-06-14T12:47:40.839Z,60.59
2016-06-14T12:48:40.858Z,60.5
2016-06-14T12:49:40.846Z,60.4
2016-06-14T12:50:40.926Z,60.5
2016-06-14T12:51:40.868Z,60.5
2016-06-14T12:52:40.870Z,60.4
2016-06-14T12:53:40.873Z,60.5
2016-06-14T12:54:40.922Z,60.4
2016-06-14T12:55:40.958Z,60.5
2016-06-14T12:56:41.039Z,60.4
2016-06-14T12:57:41.198Z,60.4
2016-06-14T12:58:41.201Z,60.4
2016-06-14T12:59:41.048Z,60.3
2016-06-14T13:00:40.941Z,60.4
2016-06-14T13:01:40.773Z,60.01
2016-06-14T13:02:41.463Z,60.5